Time;durP1;ratioP1;P1;durP2;ratioP2;P2;SDS_P1;SDS_P2;PMS_P1;PMS_P2;Temp;Humidity;BMP_temperature;BMP_pressure;BME280_temperature;BME280_humidity;BME280_pressure;Samples;Min_cycle;Max_cycle;Signal;HPM_P1;HPM_P2
2024/02/14 00:00:55;;;;;;;30.50;6.55;;;11.10;99.90;;;;;;5078292;28;20138;-66
2024/02/14 00:03:23;;;;;;;35.95;6.82;;;11.10;99.90;;;;;;5078558;28;20051;-67
2024/02/14 00:05:52;;;;;;;37.90;6.78;;;11.10;99.90;;;;;;5096066;28;20040;-67
2024/02/14 00:08:19;;;;;;;31.48;6.72;;;11.20;99.90;;;;;;5096532;28;20115;-64
2024/02/14 00:10:46;;;;;;;34.75;6.40;;;11.20;99.90;;;;;;5096525;28;20051;-64
2024/02/14 00:13:13;;;;;;;34.03;6.60;;;11.20;99.90;;;;;;5096389;28;20115;-64
2024/02/14 00:15:40;;;;;;;30.75;6.15;;;11.20;99.90;;;;;;5096146;28;20465;-64
2024/02/14 00:18:07;;;;;;;33.47;6.25;;;11.20;99.90;;;;;;5095731;28;20516;-63
2024/02/14 00:20:35;;;;;;;29.80;5.35;;;11.20;99.90;;;;;;5096082;28;20139;-64
2024/02/14 00:23:02;;;;;;;30.88;5.80;;;11.20;99.90;;;;;;5096027;28;20036;-64
2024/02/14 00:25:30;;;;;;;27.38;5.40;;;11.20;99.90;;;;;;5096024;28;20043;-64
2024/02/14 00:27:57;;;;;;;30.05;5.55;;;11.20;99.90;;;;;;5096325;28;20054;-63
2024/02/14 00:30:24;;;;;;;29.85;5.32;;;11.20;99.90;;;;;;5095550;28;20040;-64
2024/02/14 00:32:54;;;;;;;29.27;5.57;;;11.10;99.90;;;;;;5096322;28;20121;-64
2024/02/14 00:35:22;;;;;;;28.25;5.22;;;11.20;99.90;;;;;;5077778;28;20044;-64
2024/02/14 00:37:49;;;;;;;28.23;4.72;;;11.20;99.90;;;;;;5096161;28;20425;-64
2024/02/14 00:40:16;;;;;;;26.02;5.28;;;11.20;99.90;;;;;;5095616;28;20036;-64
2024/02/14 00:42:43;;;;;;;22.55;4.53;;;11.20;99.90;;;;;;5096080;28;20040;-64
2024/02/14 00:45:09;;;;;;;21.40;4.55;;;11.20;99.90;;;;;;5095987;28;20052;-64
2024/02/14 00:47:36;;;;;;;24.08;4.57;;;11.20;99.90;;;;;;5096302;28;20093;-64
2024/02/14 00:50:03;;;;;;;21.45;4.10;;;11.30;99.90;;;;;;5095421;28;20040;-66
2024/02/14 00:52:30;;;;;;;23.25;4.28;;;11.30;99.90;;;;;;5095796;28;20119;-64
2024/02/14 00:54:57;;;;;;;22.13;4.53;;;11.30;99.90;;;;;;5095508;28;20101;-64
2024/02/14 00:57:25;;;;;;;17.30;3.80;;;11.30;99.90;;;;;;5095648;28;20043;-64
2024/02/14 00:59:52;;;;;;;20.73;4.00;;;11.30;99.90;;;;;;5095229;28;20097;-64
2024/02/14 01:02:19;;;;;;;17.27;3.97;;;11.40;99.90;;;;;;5095592;28;20042;-64
2024/02/14 01:04:46;;;;;;;16.70;4.28;;;11.30;99.90;;;;;;5095149;28;20036;-64
2024/02/14 01:07:13;;;;;;;13.50;3.13;;;11.40;99.90;;;;;;5095209;28;20550;-64
2024/02/14 01:09:39;;;;;;;11.98;2.78;;;11.40;99.90;;;;;;5095353;28;20093;-64
2024/02/14 01:12:06;;;;;;;15.88;3.13;;;11.40;99.90;;;;;;5095103;28;20401;-64
2024/02/14 01:14:33;;;;;;;18.30;3.05;;;11.30;99.90;;;;;;5095004;28;20101;-64
2024/02/14 01:17:00;;;;;;;12.98;3.00;;;11.30;99.90;;;;;;5076777;28;20052;-62
2024/02/14 01:19:28;;;;;;;14.98;3.05;;;11.30;99.90;;;;;;5094973;28;20052;-63
2024/02/14 01:21:58;;;;;;;10.70;3.03;;;11.30;99.90;;;;;;5095297;28;20043;-64
2024/02/14 01:24:30;;;;;;;13.85;3.42;;;11.30;99.90;;;;;;5094619;28;20044;-64
2024/02/14 01:26:57;;;;;;;14.60;3.30;;;11.30;99.90;;;;;;5095009;28;20048;-64
2024/02/14 01:29:24;;;;;;;11.88;3.22;;;11.30;99.90;;;;;;5095124;28;20584;-64
2024/02/14 01:31:51;;;;;;;13.70;2.53;;;11.20;99.90;;;;;;5095055;28;20039;-63
2024/02/14 01:34:17;;;;;;;14.52;2.78;;;11.20;99.90;;;;;;5094871;28;20093;-62
2024/02/14 01:36:45;;;;;;;14.15;3.03;;;11.20;99.90;;;;;;5094912;28;20058;-62
2024/02/14 01:39:12;;;;;;;10.63;2.35;;;11.10;99.90;;;;;;5094873;28;20058;-62
2024/02/14 01:41:39;;;;;;;15.85;2.88;;;11.10;99.90;;;;;;5094874;28;20035;-63
2024/02/14 01:44:06;;;;;;;15.20;3.65;;;11.10;99.90;;;;;;5094532;28;20035;-64
2024/02/14 01:46:33;;;;;;;18.25;3.85;;;11.10;99.90;;;;;;5093976;28;20058;-63
2024/02/14 01:49:00;;;;;;;12.93;2.97;;;11.00;99.90;;;;;;5094688;28;20048;-64
2024/02/14 01:51:27;;;;;;;13.10;3.08;;;11.00;99.90;;;;;;5076149;28;20066;-64
2024/02/14 01:53:54;;;;;;;16.33;3.90;;;11.00;99.90;;;;;;5094645;28;20055;-64
2024/02/14 01:56:20;;;;;;;14.40;2.90;;;11.00;99.90;;;;;;5094384;28;20485;-64
2024/02/14 01:58:47;;;;;;;15.60;3.28;;;11.00;99.90;;;;;;5094595;28;20062;-64
2024/02/14 02:01:14;;;;;;;17.25;3.35;;;11.00;99.90;;;;;;5094112;28;20067;-64
2024/02/14 02:03:41;;;;;;;14.18;2.83;;;11.00;99.90;;;;;;5094328;28;20393;-64
2024/02/14 02:06:09;;;;;;;19.33;3.97;;;11.00;99.90;;;;;;5076118;28;20047;-64
2024/02/14 02:08:36;;;;;;;17.70;2.83;;;11.00;99.90;;;;;;5094102;28;20123;-64
2024/02/14 02:11:03;;;;;;;15.60;2.90;;;11.00;99.90;;;;;;5094458;28;20126;-64
2024/02/14 02:13:30;;;;;;;17.40;2.92;;;11.00;99.90;;;;;;5094080;28;20063;-63
2024/02/14 02:15:57;;;;;;;13.95;2.88;;;11.00;99.90;;;;;;5094215;28;20043;-66
2024/02/14 02:18:25;;;;;;;16.65;3.75;;;11.10;99.90;;;;;;5093917;28;20052;-66
2024/02/14 02:20:52;;;;;;;16.80;2.95;;;11.10;99.90;;;;;;5093816;28;20377;-66
2024/02/14 02:23:20;;;;;;;13.68;2.55;;;11.10;99.90;;;;;;5094231;28;20465;-66
2024/02/14 02:25:47;;;;;;;11.95;2.10;;;11.20;99.90;;;;;;5075792;28;20062;-66
2024/02/14 02:28:14;;;;;;;9.45;2.50;;;11.20;99.90;;;;;;5094112;28;20044;-65
2024/02/14 02:30:41;;;;;;;12.20;2.08;;;11.30;99.90;;;;;;5093923;28;20047;-66
2024/02/14 02:33:08;;;;;;;9.50;2.10;;;11.30;99.90;;;;;;5094201;28;20055;-66
2024/02/14 02:35:35;;;;;;;11.52;2.40;;;11.30;99.90;;;;;;5093575;28;20040;-65
2024/02/14 02:38:01;;;;;;;9.23;1.85;;;11.40;99.90;;;;;;5093771;28;20036;-66
2024/02/14 02:40:28;;;;;;;12.65;2.38;;;11.40;99.90;;;;;;5093744;28;20040;-66
2024/02/14 02:42:55;;;;;;;9.52;2.40;;;11.50;99.90;;;;;;5075485;28;20105;-66
2024/02/14 02:45:22;;;;;;;10.00;2.10;;;11.50;99.90;;;;;;5093488;28;20075;-66
2024/02/14 02:47:51;;;;;;;7.72;1.95;;;11.50;99.90;;;;;;5075769;28;20101;-66
2024/02/14 02:50:19;;;;;;;7.88;1.45;;;11.50;99.90;;;;;;5093189;28;20093;-66
2024/02/14 02:52:46;;;;;;;7.40;1.70;;;11.50;99.90;;;;;;5093625;28;20445;-66
2024/02/14 02:55:14;;;;;;;9.77;2.05;;;11.60;99.90;;;;;;5093683;28;20032;-65
2024/02/14 02:57:41;;;;;;;8.60;1.90;;;11.60;99.90;;;;;;5092835;28;20044;-66
2024/02/14 03:00:08;;;;;;;8.18;1.50;;;11.60;99.90;;;;;;5093280;28;20093;-66
2024/02/14 03:02:34;;;;;;;9.02;1.70;;;11.60;99.90;;;;;;5093368;28;20422;-66
2024/02/14 03:05:03;;;;;;;8.15;1.48;;;11.60;99.90;;;;;;5093241;28;20040;-66
2024/02/14 03:07:30;;;;;;;6.35;1.50;;;11.70;99.90;;;;;;5093455;28;20070;-65
2024/02/14 03:09:56;;;;;;;5.78;1.35;;;11.60;99.90;;;;;;5093647;28;20036;-66
2024/02/14 03:12:23;;;;;;;5.25;1.20;;;11.70;99.90;;;;;;5092979;28;20040;-65
2024/02/14 03:14:50;;;;;;;6.20;1.33;;;11.70;99.90;;;;;;5092906;28;20109;-66
2024/02/14 03:17:17;;;;;;;7.95;1.42;;;11.70;99.90;;;;;;5093468;28;20047;-65
2024/02/14 03:19:44;;;;;;;4.30;1.20;;;11.70;99.90;;;;;;5093411;28;20051;-65
2024/02/14 03:22:11;;;;;;;6.80;1.40;;;11.70;99.90;;;;;;5093332;28;20043;-66
2024/02/14 03:24:37;;;;;;;3.42;1.05;;;11.70;99.90;;;;;;5093217;28;20043;-65
2024/02/14 03:27:05;;;;;;;5.13;0.90;;;11.70;99.90;;;;;;5074750;28;20043;-65
2024/02/14 03:29:32;;;;;;;5.30;1.40;;;11.70;99.90;;;;;;5072926;28;20037;-66
2024/02/14 03:32:03;;;;;;;5.25;1.40;;;11.70;99.90;;;;;;5072006;28;20040;-65
2024/02/14 03:34:33;;;;;;;3.00;1.02;;;11.70;99.90;;;;;;5070906;28;20076;-65
2024/02/14 03:37:02;;;;;;;4.05;0.90;;;11.80;99.90;;;;;;5072941;28;20037;-65
2024/02/14 03:39:29;;;;;;;3.35;1.00;;;11.70;99.90;;;;;;5054879;28;20398;-65
2024/02/14 03:41:55;;;;;;;4.85;1.00;;;11.70;99.90;;;;;;5072699;28;20086;-65
2024/02/14 03:44:23;;;;;;;5.35;1.10;;;11.70;99.90;;;;;;5054977;28;20098;-65
2024/02/14 03:46:49;;;;;;;4.85;1.13;;;11.70;99.90;;;;;;5072763;28;20044;-65
2024/02/14 03:49:16;;;;;;;5.22;1.02;;;11.70;99.90;;;;;;5072676;28;20086;-63
2024/02/14 03:51:44;;;;;;;3.85;1.00;;;11.70;99.90;;;;;;5072928;28;20385;-61
2024/02/14 03:54:11;;;;;;;5.85;1.33;;;11.70;99.90;;;;;;5072577;28;20041;-61
2024/02/14 03:56:38;;;;;;;4.05;1.10;;;11.60;99.90;;;;;;5072527;28;20124;-61
2024/02/14 03:59:07;;;;;;;6.25;1.23;;;11.60;99.90;;;;;;5072633;28;20371;-61
2024/02/14 04:01:34;;;;;;;4.13;1.10;;;11.60;99.90;;;;;;5072924;28;20041;-65
2024/02/14 04:04:01;;;;;;;4.88;1.08;;;11.60;99.90;;;;;;5072668;28;20140;-65
2024/02/14 04:06:31;;;;;;;5.25;1.10;;;11.70;99.90;;;;;;5073007;28;20106;-65
2024/02/14 04:08:58;;;;;;;5.25;1.00;;;11.70;99.90;;;;;;5073498;28;20435;-65
2024/02/14 04:11:25;;;;;;;6.03;1.20;;;11.70;99.90;;;;;;5076081;28;20375;-65
2024/02/14 04:13:53;;;;;;;4.20;1.35;;;11.70;99.90;;;;;;5075691;28;20040;-65
2024/02/14 04:16:20;;;;;;;6.78;1.52;;;11.70;99.90;;;;;;5076053;28;20044;-65
2024/02/14 04:18:47;;;;;;;9.07;1.30;;;11.70;99.90;;;;;;5076077;28;20095;-65
2024/02/14 04:21:14;;;;;;;5.13;1.27;;;11.70;99.90;;;;;;5058234;28;20045;-65
2024/02/14 04:23:41;;;;;;;9.60;1.70;;;11.70;99.90;;;;;;5075834;28;20038;-65
2024/02/14 04:26:08;;;;;;;6.75;1.35;;;11.70;99.90;;;;;;5057985;28;20117;-65
2024/02/14 04:28:35;;;;;;;5.68;1.40;;;11.70;99.90;;;;;;5075884;28;20041;-65
2024/02/14 04:31:01;;;;;;;5.07;1.15;;;11.70;99.90;;;;;;5075850;28;20516;-65
2024/02/14 04:33:30;;;;;;;3.50;1.10;;;11.70;99.90;;;;;;5075659;28;20382;-65
2024/02/14 04:35:57;;;;;;;6.20;1.45;;;11.70;99.90;;;;;;5075796;28;20047;-65
2024/02/14 04:38:24;;;;;;;3.53;1.20;;;11.80;99.90;;;;;;5075741;28;20046;-65
2024/02/14 04:40:52;;;;;;;4.65;1.25;;;11.70;99.90;;;;;;5075793;28;20068;-65
2024/02/14 04:43:19;;;;;;;5.18;1.00;;;11.80;99.90;;;;;;5075653;28;20067;-65
2024/02/14 04:45:46;;;;;;;2.47;0.70;;;11.80;99.90;;;;;;5075515;28;20048;-65
2024/02/14 04:48:13;;;;;;;3.95;1.00;;;11.80;99.90;;;;;;5057625;28;20072;-65
2024/02/14 04:50:40;;;;;;;8.55;1.05;;;11.80;99.90;;;;;;5075557;28;20470;-65
2024/02/14 04:53:07;;;;;;;4.15;0.80;;;11.70;99.90;;;;;;5075441;28;20436;-65
2024/02/14 04:55:34;;;;;;;4.43;1.00;;;11.80;99.90;;;;;;5075301;28;20032;-65
2024/02/14 04:58:01;;;;;;;3.42;0.90;;;11.80;99.90;;;;;;5074952;28;20397;-65
2024/02/14 05:00:27;;;;;;;2.45;0.77;;;11.80;99.90;;;;;;5075142;28;20041;-65
2024/02/14 05:02:54;;;;;;;6.47;1.00;;;11.80;99.90;;;;;;5075205;28;20044;-65
2024/02/14 05:05:21;;;;;;;3.83;0.95;;;11.80;99.90;;;;;;5074687;28;20382;-65
2024/02/14 05:07:48;;;;;;;3.78;0.82;;;11.80;99.90;;;;;;5075290;28;20478;-65
2024/02/14 05:10:15;;;;;;;3.58;1.02;;;11.80;99.90;;;;;;5074934;28;20047;-65
2024/02/14 05:12:42;;;;;;;2.95;0.60;;;11.80;99.90;;;;;;5075264;28;20067;-65
2024/02/14 05:15:09;;;;;;;3.05;0.60;;;11.70;99.90;;;;;;5074716;28;20049;-65
2024/02/14 05:17:36;;;;;;;3.45;0.73;;;11.80;99.90;;;;;;5074981;28;20040;-65
2024/02/14 05:20:03;;;;;;;2.83;0.80;;;11.80;99.90;;;;;;5074536;28;20044;-65
2024/02/14 05:22:30;;;;;;;2.45;0.60;;;11.70;99.90;;;;;;5074677;28;20127;-63
2024/02/14 05:24:57;;;;;;;3.50;0.70;;;11.70;99.90;;;;;;5074660;28;20045;-63
2024/02/14 05:27:23;;;;;;;2.13;0.60;;;11.70;99.90;;;;;;5074945;28;20444;-63
2024/02/14 05:29:50;;;;;;;2.38;0.60;;;11.70;99.90;;;;;;5074736;28;20048;-63
2024/02/14 05:32:17;;;;;;;2.22;0.68;;;11.70;99.90;;;;;;5075240;28;20102;-63
2024/02/14 05:34:44;;;;;;;2.33;0.68;;;11.70;99.90;;;;;;5074216;28;20044;-63
2024/02/14 05:37:10;;;;;;;2.92;0.75;;;11.70;99.90;;;;;;5074221;28;20044;-63
2024/02/14 05:39:37;;;;;;;3.17;0.70;;;11.70;99.90;;;;;;5074408;28;20481;-63
2024/02/14 05:42:05;;;;;;;2.45;0.90;;;11.70;99.90;;;;;;5074303;28;20034;-63
2024/02/14 05:44:32;;;;;;;4.32;0.80;;;11.70;99.90;;;;;;5074482;28;20052;-63
2024/02/14 05:47:00;;;;;;;2.95;0.65;;;11.70;99.90;;;;;;5074318;28;20037;-63
2024/02/14 05:49:27;;;;;;;2.63;0.80;;;11.70;99.90;;;;;;5074373;28;20044;-63
2024/02/14 05:51:53;;;;;;;3.03;0.70;;;11.70;99.90;;;;;;5074213;28;20123;-63
2024/02/14 05:54:20;;;;;;;2.35;0.90;;;11.70;99.90;;;;;;5073914;28;20136;-63
2024/02/14 05:56:47;;;;;;;3.90;0.95;;;11.60;99.90;;;;;;5074480;28;20037;-63
2024/02/14 05:59:14;;;;;;;3.55;1.15;;;11.70;99.90;;;;;;5074306;28;20040;-63
2024/02/14 06:01:41;;;;;;;5.57;1.00;;;11.60;99.90;;;;;;5074227;28;20052;-63
2024/02/14 06:04:07;;;;;;;4.75;1.10;;;11.60;99.90;;;;;;5073607;28;20367;-63
2024/02/14 06:06:34;;;;;;;5.80;1.27;;;11.60;99.90;;;;;;5073960;28;20119;-65
2024/02/14 06:09:02;;;;;;;3.75;1.15;;;11.70;99.90;;;;;;5074177;28;20098;-66
2024/02/14 06:11:29;;;;;;;3.28;0.90;;;11.60;99.90;;;;;;5073851;28;20098;-66
2024/02/14 06:13:56;;;;;;;4.75;1.25;;;11.70;99.90;;;;;;5073676;28;20066;-66
2024/02/14 06:16:23;;;;;;;5.05;1.10;;;11.70;99.90;;;;;;5055792;28;20040;-65
2024/02/14 06:18:50;;;;;;;4.57;1.10;;;11.70;99.90;;;;;;5073672;28;20049;-66
2024/02/14 06:21:19;;;;;;;3.88;1.10;;;11.70;99.90;;;;;;5056062;28;20049;-66
2024/02/14 06:23:46;;;;;;;4.57;1.27;;;11.70;99.90;;;;;;5073634;28;20040;-66
2024/02/14 06:26:14;;;;;;;3.13;1.10;;;11.70;99.90;;;;;;5055861;28;20041;-66
2024/02/14 06:28:41;;;;;;;4.30;1.20;;;11.70;99.90;;;;;;5073919;28;20068;-66
2024/02/14 06:31:07;;;;;;;3.38;1.15;;;11.70;99.90;;;;;;5073491;28;20037;-64
2024/02/14 06:33:34;;;;;;;5.70;1.00;;;11.70;99.90;;;;;;5073811;28;20036;-63
2024/02/14 06:36:01;;;;;;;3.53;1.10;;;11.70;99.90;;;;;;5073373;28;20055;-64
2024/02/14 06:38:28;;;;;;;2.30;0.60;;;11.70;99.90;;;;;;5073903;28;20047;-64
2024/02/14 06:40:56;;;;;;;2.53;0.77;;;11.70;99.90;;;;;;5073450;28;20082;-64
2024/02/14 06:43:23;;;;;;;3.72;0.70;;;11.70;99.90;;;;;;5055492;28;20048;-64
2024/02/14 06:45:50;;;;;;;1.60;0.45;;;11.70;99.90;;;;;;5073407;28;20045;-63
2024/02/14 06:48:20;;;;;;;2.22;0.55;;;11.70;99.90;;;;;;5073590;28;20408;-64
2024/02/14 06:50:47;;;;;;;1.35;0.52;;;11.70;99.90;;;;;;5073520;28;20119;-63
2024/02/14 06:53:14;;;;;;;1.77;0.52;;;11.70;99.90;;;;;;5073463;28;20041;-64
2024/02/14 06:55:41;;;;;;;1.65;0.55;;;11.70;99.90;;;;;;5073188;28;20048;-63
2024/02/14 06:58:08;;;;;;;0.93;0.40;;;11.70;99.90;;;;;;5073074;28;20064;-64
2024/02/14 07:00:34;;;;;;;1.38;0.45;;;11.70;99.90;;;;;;5073214;28;20477;-63
2024/02/14 07:03:01;;;;;;;2.00;0.43;;;11.60;99.90;;;;;;5072953;28;20040;-63
2024/02/14 07:05:29;;;;;;;1.67;0.40;;;11.60;99.90;;;;;;5073307;28;20063;-64
2024/02/14 07:07:56;;;;;;;2.40;0.60;;;11.60;99.90;;;;;;5073236;28;20055;-65
2024/02/14 07:10:23;;;;;;;2.72;0.50;;;11.60;99.90;;;;;;5073162;28;20487;-64
2024/02/14 07:12:49;;;;;;;1.98;0.57;;;11.60;99.90;;;;;;5073483;28;20115;-63
2024/02/14 07:15:16;;;;;;;1.25;0.32;;;11.60;99.90;;;;;;5073159;28;20051;-63
2024/02/14 07:17:43;;;;;;;1.63;0.40;;;11.60;99.90;;;;;;5055151;28;20091;-63
2024/02/14 07:20:10;;;;;;;3.10;0.55;;;11.60;99.90;;;;;;5073316;28;20128;-64
2024/02/14 07:22:37;;;;;;;1.73;0.57;;;11.60;99.90;;;;;;5073242;28;20370;-65
2024/02/14 07:25:04;;;;;;;1.02;0.38;;;11.70;99.90;;;;;;5073060;28;20059;-65
2024/02/14 07:27:31;;;;;;;1.38;0.50;;;11.70;99.90;;;;;;5072939;28;20140;-65
2024/02/14 07:29:58;;;;;;;1.23;0.30;;;11.60;99.90;;;;;;5054979;28;20097;-65
2024/02/14 07:32:27;;;;;;;0.70;0.30;;;11.70;99.90;;;;;;5073116;28;20102;-65
2024/02/14 07:34:54;;;;;;;0.85;0.32;;;11.70;99.90;;;;;;5072774;28;20098;-65
2024/02/14 07:37:21;;;;;;;1.65;0.30;;;11.70;99.90;;;;;;5072783;28;20135;-65
2024/02/14 07:39:48;;;;;;;1.00;0.40;;;11.70;99.90;;;;;;5073109;28;20049;-64
2024/02/14 07:42:15;;;;;;;2.33;0.35;;;11.70;99.90;;;;;;5072694;28;20041;-65
2024/02/14 07:44:42;;;;;;;1.40;0.40;;;11.80;99.90;;;;;;5074959;28;20045;-65
2024/02/14 07:47:09;;;;;;;0.70;0.40;;;11.80;99.90;;;;;;5076558;28;20037;-65
2024/02/14 07:49:36;;;;;;;1.20;0.50;;;11.80;99.90;;;;;;5076534;28;20045;-65
2024/02/14 07:52:03;;;;;;;1.70;0.40;;;11.80;99.90;;;;;;5076630;28;20045;-65
2024/02/14 07:54:30;;;;;;;1.45;0.50;;;11.80;99.90;;;;;;5076415;28;20037;-65
2024/02/14 07:56:56;;;;;;;2.65;0.50;;;11.90;99.90;;;;;;5076007;28;20044;-65
2024/02/14 07:59:23;;;;;;;0.60;0.40;;;11.80;99.90;;;;;;5076266;28;20037;-65
2024/02/14 08:01:50;;;;;;;1.35;0.30;;;11.80;99.90;;;;;;5076139;28;20040;-64
2024/02/14 08:04:17;;;;;;;2.63;0.70;;;11.80;99.90;;;;;;5076293;28;20044;-66
2024/02/14 08:06:44;;;;;;;2.47;0.60;;;11.90;99.90;;;;;;5076518;28;20055;-65
2024/02/14 08:09:11;;;;;;;1.20;0.47;;;11.90;99.90;;;;;;5076221;28;20091;-65
2024/02/14 08:11:38;;;;;;;1.35;0.43;;;11.90;99.90;;;;;;5076337;28;20099;-65
2024/02/14 08:14:05;;;;;;;2.17;0.60;;;12.00;99.90;;;;;;5075922;28;20071;-65
2024/02/14 08:16:32;;;;;;;2.88;0.50;;;12.00;99.90;;;;;;5076266;28;20037;-65
2024/02/14 08:18:59;;;;;;;2.53;0.50;;;12.00;99.90;;;;;;5075596;28;20055;-64
2024/02/14 08:21:26;;;;;;;1.50;0.60;;;12.00;99.90;;;;;;5076158;28;20045;-65
2024/02/14 08:23:58;;;;;;;1.88;0.50;;;12.00;99.90;;;;;;5075781;28;20411;-65
2024/02/14 08:26:27;;;;;;;1.85;0.57;;;12.10;99.90;;;;;;5075343;28;20048;-64
2024/02/14 08:28:54;;;;;;;1.42;0.50;;;12.10;99.90;;;;;;5077303;28;20040;-62
2024/02/14 08:31:22;;;;;;;1.83;0.52;;;12.10;99.90;;;;;;5075371;28;20040;-62
2024/02/14 08:33:49;;;;;;;2.42;0.60;;;12.10;99.90;;;;;;5074980;28;20375;-62
2024/02/14 08:36:19;;;;;;;2.13;0.55;;;12.10;99.90;;;;;;5075230;28;20044;-62
2024/02/14 08:38:46;;;;;;;2.35;0.70;;;12.20;99.90;;;;;;5074759;28;20072;-62
2024/02/14 08:41:14;;;;;;;3.40;0.60;;;12.20;99.90;;;;;;5074762;28;20200;-62
2024/02/14 08:43:41;;;;;;;2.58;0.70;;;12.20;99.90;;;;;;5069557;28;20045;-62
2024/02/14 08:46:12;;;;;;;3.33;0.60;;;12.20;99.90;;;;;;5057772;28;20385;-62
2024/02/14 08:48:45;;;;;;;1.65;0.60;;;12.20;99.90;;;;;;5074686;28;20451;-65
2024/02/14 08:51:15;;;;;;;2.03;0.52;;;12.20;99.90;;;;;;5072893;28;20119;-65
2024/02/14 08:53:43;;;;;;;1.65;0.60;;;12.20;99.90;;;;;;5074383;28;20082;-64
2024/02/14 08:56:10;;;;;;;3.10;0.63;;;12.30;99.90;;;;;;5073569;28;20052;-64
2024/02/14 08:58:37;;;;;;;1.73;0.55;;;12.30;99.90;;;;;;5074533;28;20082;-64
2024/02/14 09:01:05;;;;;;;1.50;0.60;;;12.30;99.90;;;;;;5074406;28;20058;-63
2024/02/14 09:03:43;;;;;;;1.90;0.55;;;12.30;99.90;;;;;;5074528;28;20062;-63
2024/02/14 09:06:10;;;;;;;1.52;0.52;;;12.30;99.90;;;;;;5074371;28;20044;-63
2024/02/14 09:08:37;;;;;;;1.95;0.43;;;12.30;99.90;;;;;;5074434;28;20051;-63
2024/02/14 09:11:04;;;;;;;1.52;0.30;;;12.40;99.90;;;;;;5074437;28;20106;-63
2024/02/14 09:13:31;;;;;;;1.50;0.45;;;12.40;99.90;;;;;;5074450;28;20412;-63
2024/02/14 09:15:57;;;;;;;2.50;0.50;;;12.40;99.90;;;;;;5073077;28;20400;-65
2024/02/14 09:18:25;;;;;;;1.13;0.40;;;12.40;99.90;;;;;;5074216;28;20048;-64
2024/02/14 09:20:52;;;;;;;0.88;0.30;;;12.40;99.90;;;;;;5075156;28;20050;-64
2024/02/14 09:23:22;;;;;;;1.83;0.47;;;12.40;99.90;;;;;;5072834;28;20040;-64
2024/02/14 09:25:49;;;;;;;1.60;0.50;;;12.40;99.90;;;;;;5074001;28;20378;-64
2024/02/14 09:28:15;;;;;;;2.95;0.80;;;12.40;99.90;;;;;;5074392;28;20040;-64
2024/02/14 09:30:42;;;;;;;1.67;0.60;;;12.40;99.90;;;;;;5072217;28;20117;-64
2024/02/14 09:33:09;;;;;;;2.03;0.40;;;12.40;99.90;;;;;;5083379;28;20032;-65
2024/02/14 09:35:38;;;;;;;2.42;0.70;;;12.40;99.90;;;;;;5076544;28;20036;-64
2024/02/14 09:38:05;;;;;;;1.92;0.40;;;12.30;99.90;;;;;;5056300;28;20063;-64
2024/02/14 09:40:32;;;;;;;1.70;0.55;;;12.30;99.90;;;;;;5074498;28;20119;-65
2024/02/14 09:42:59;;;;;;;1.63;0.52;;;12.30;99.90;;;;;;5073880;28;20040;-63
2024/02/14 09:45:26;;;;;;;3.70;0.90;;;12.30;99.90;;;;;;5074449;28;20045;-66
2024/02/14 09:47:53;;;;;;;1.05;0.55;;;12.30;99.90;;;;;;5073835;28;20052;-65
2024/02/14 09:50:20;;;;;;;2.80;0.63;;;12.30;99.90;;;;;;5056665;28;20039;-64
2024/02/14 09:52:48;;;;;;;1.35;0.57;;;12.30;99.90;;;;;;5073645;28;20444;-65
2024/02/14 09:55:15;;;;;;;2.20;0.50;;;12.30;99.90;;;;;;5074152;28;20047;-64
2024/02/14 09:57:42;;;;;;;1.70;0.63;;;12.40;99.90;;;;;;5074006;28;20044;-63
2024/02/14 10:00:09;;;;;;;3.72;1.70;;;12.30;99.90;;;;;;5073288;28;20537;-66
2024/02/14 10:02:36;;;;;;;1.17;0.50;;;12.30;99.90;;;;;;5074310;28;20078;-66
2024/02/14 10:05:03;;;;;;;1.85;0.70;;;12.30;99.90;;;;;;5073074;28;20564;-64
2024/02/14 10:07:30;;;;;;;1.90;0.60;;;12.30;99.90;;;;;;5073492;28;20044;-64
2024/02/14 10:09:57;;;;;;;1.52;0.70;;;12.30;99.90;;;;;;5056097;28;20032;-65
2024/02/14 10:12:23;;;;;;;2.10;0.77;;;12.30;99.90;;;;;;5073191;28;20043;-66
2024/02/14 10:14:52;;;;;;;2.00;1.00;;;12.40;99.90;;;;;;5074101;28;20071;-66
2024/02/14 10:17:19;;;;;;;1.67;0.50;;;12.30;99.90;;;;;;5073424;28;20418;-65
2024/02/14 10:19:45;;;;;;;1.88;0.70;;;12.40;99.90;;;;;;5073598;28;20501;-65
2024/02/14 10:22:12;;;;;;;2.20;0.63;;;12.40;99.90;;;;;;5073117;28;20040;-66
2024/02/14 10:24:39;;;;;;;2.20;0.70;;;12.30;99.90;;;;;;5071905;28;20102;-64
2024/02/14 10:27:08;;;;;;;3.25;0.90;;;12.30;99.90;;;;;;5073442;28;20166;-65
2024/02/14 10:29:35;;;;;;;1.90;0.63;;;12.30;99.90;;;;;;5073419;28;20048;-66
2024/02/14 10:32:02;;;;;;;3.13;0.65;;;12.30;99.90;;;;;;5073412;28;20050;-66
2024/02/14 10:34:29;;;;;;;3.63;0.70;;;12.30;99.90;;;;;;5072860;28;20033;-66
2024/02/14 10:36:56;;;;;;;2.15;0.70;;;12.30;99.90;;;;;;5073424;28;20549;-65
2024/02/14 10:39:23;;;;;;;2.42;1.00;;;12.40;99.90;;;;;;5073466;28;20350;-65
2024/02/14 10:41:50;;;;;;;1.95;0.60;;;12.40;99.90;;;;;;5054854;28;20072;-65
2024/02/14 10:44:17;;;;;;;1.77;0.60;;;12.40;99.90;;;;;;5073219;28;20040;-64
2024/02/14 10:46:44;;;;;;;2.13;0.60;;;12.40;99.90;;;;;;5072779;28;20098;-65
2024/02/14 10:49:11;;;;;;;1.10;0.40;;;12.40;99.90;;;;;;5073062;28;20040;-62
2024/02/14 10:51:38;;;;;;;1.45;0.50;;;12.40;99.90;;;;;;5072387;28;20040;-65
2024/02/14 10:54:09;;;;;;;1.38;0.50;;;12.40;99.90;;;;;;5054835;28;20048;-66
2024/02/14 10:56:36;;;;;;;1.42;0.52;;;12.50;99.90;;;;;;5054516;28;20052;-65
2024/02/14 10:59:03;;;;;;;2.38;0.77;;;12.50;99.90;;;;;;5054986;28;20046;-65
2024/02/14 11:01:34;;;;;;;1.40;0.50;;;12.50;99.90;;;;;;5073002;28;20059;-65
2024/02/14 11:04:01;;;;;;;2.13;0.40;;;12.60;99.90;;;;;;5054889;28;20055;-65
2024/02/14 11:06:31;;;;;;;0.98;0.38;;;12.60;99.90;;;;;;5072947;28;20040;-65
2024/02/14 11:09:00;;;;;;;1.40;0.60;;;12.60;99.90;;;;;;5073173;28;20044;-65
2024/02/14 11:11:27;;;;;;;1.77;0.60;;;12.70;99.90;;;;;;5072509;28;20040;-65
2024/02/14 11:13:54;;;;;;;2.20;0.60;;;12.80;99.90;;;;;;5072820;28;20045;-65
2024/02/14 11:16:21;;;;;;;1.45;0.52;;;12.80;99.90;;;;;;5072798;28;20449;-65
2024/02/14 11:18:48;;;;;;;3.60;0.70;;;12.80;99.90;;;;;;5073289;28;20052;-65
2024/02/14 11:21:15;;;;;;;3.05;0.70;;;12.90;99.90;;;;;;5076377;28;20457;-64
2024/02/14 11:23:42;;;;;;;2.90;0.50;;;12.90;99.90;;;;;;5076926;28;20091;-65
2024/02/14 11:26:10;;;;;;;2.30;0.60;;;12.90;99.90;;;;;;5076994;28;20037;-61
2024/02/14 11:28:38;;;;;;;2.22;0.70;;;12.90;99.90;;;;;;5076106;28;20071;-62
2024/02/14 11:31:05;;;;;;;2.83;0.70;;;13.00;99.90;;;;;;5076994;28;20044;-62
2024/02/14 11:33:32;;;;;;;2.58;0.80;;;13.00;99.90;;;;;;5076448;28;20367;-61
2024/02/14 11:36:01;;;;;;;2.97;0.63;;;13.00;99.90;;;;;;5075533;28;20044;-62
2024/02/14 11:38:29;;;;;;;1.90;0.70;;;13.10;99.90;;;;;;5058416;28;20076;-62
2024/02/14 11:40:56;;;;;;;2.67;0.90;;;13.10;99.90;;;;;;5058771;28;20048;-65
2024/02/14 11:43:24;;;;;;;2.40;0.85;;;13.10;99.90;;;;;;5076216;28;20044;-64
2024/02/14 11:45:52;;;;;;;4.15;0.98;;;13.20;99.90;;;;;;5076754;28;20040;-65
2024/02/14 11:48:23;;;;;;;1.98;0.70;;;13.20;99.90;;;;;;5076095;28;20051;-65
2024/02/14 11:50:51;;;;;;;2.58;0.70;;;13.20;99.90;;;;;;5076910;28;20123;-63
2024/02/14 11:53:18;;;;;;;2.30;0.60;;;13.30;99.90;;;;;;5058238;28;20037;-65
2024/02/14 11:55:48;;;;;;;3.15;0.80;;;13.20;99.90;;;;;;5076406;28;20543;-62
2024/02/14 11:58:15;;;;;;;3.45;0.68;;;13.20;99.90;;;;;;5076438;28;20516;-62
2024/02/14 12:00:43;;;;;;;5.50;1.10;;;13.30;99.90;;;;;;5075898;28;20040;-61
2024/02/14 12:03:10;;;;;;;3.53;0.93;;;13.30;99.90;;;;;;5076038;28;20047;-62
2024/02/14 12:05:37;;;;;;;7.50;1.48;;;13.30;99.90;;;;;;5073155;28;20470;-63
2024/02/14 12:08:04;;;;;;;3.70;0.82;;;13.30;99.90;;;;;;5070520;28;20106;-63
2024/02/14 12:10:31;;;;;;;3.65;1.50;;;13.30;99.90;;;;;;5058044;28;20044;-65
2024/02/14 12:12:59;;;;;;;2.28;1.08;;;13.30;99.90;;;;;;5074963;28;20107;-67
2024/02/14 12:15:26;;;;;;;3.13;0.90;;;13.40;99.90;;;;;;5075588;28;20097;-66
2024/02/14 12:17:52;;;;;;;3.63;1.00;;;13.40;99.90;;;;;;5074730;28;20048;-66
2024/02/14 12:20:19;;;;;;;4.68;1.02;;;13.40;99.90;;;;;;5075656;28;20426;-63
2024/02/14 12:22:47;;;;;;;3.25;0.90;;;13.50;99.90;;;;;;5057192;28;20045;-63
2024/02/14 12:25:14;;;;;;;4.13;0.85;;;13.50;99.90;;;;;;5075381;28;20040;-63
2024/02/14 12:27:42;;;;;;;3.17;0.90;;;13.50;99.90;;;;;;5075271;28;20044;-64
2024/02/14 12:30:10;;;;;;;3.00;0.70;;;13.50;99.90;;;;;;5074106;28;20037;-63
2024/02/14 12:32:36;;;;;;;3.45;0.90;;;13.60;99.90;;;;;;5075897;28;20116;-63
2024/02/14 12:35:04;;;;;;;3.38;0.90;;;13.70;99.90;;;;;;5074976;28;20485;-62
2024/02/14 12:37:31;;;;;;;2.75;0.90;;;13.70;99.90;;;;;;5075963;28;20045;-63
2024/02/14 12:39:59;;;;;;;4.05;1.25;;;13.80;99.90;;;;;;5075693;28;20383;-65
2024/02/14 12:42:27;;;;;;;3.13;1.08;;;13.80;99.90;;;;;;5074791;28;20044;-66
2024/02/14 12:44:54;;;;;;;3.65;0.98;;;13.90;99.90;;;;;;5078509;28;20037;-66